createdAt,value
2023-06-15T00:02:19.983Z,100202.12
2023-06-15T00:04:47.192Z,100203.76
2023-06-15T00:07:14.524Z,100206.58
2023-06-15T00:09:41.720Z,100204.21
2023-06-15T00:12:10.663Z,100205.52
2023-06-15T00:14:37.999Z,100205.10
2023-06-15T00:17:05.343Z,100207.89
2023-06-15T00:19:32.470Z,100206.17
2023-06-15T00:22:00.186Z,100208.23
2023-06-15T00:24:27.585Z,100201.73
2023-06-15T00:26:54.893Z,100202.56
2023-06-15T00:29:22.048Z,100199.67
2023-06-15T00:31:49.270Z,100197.36
2023-06-15T00:34:16.453Z,100196.85
2023-06-15T00:36:43.683Z,100199.21
2023-06-15T00:39:10.872Z,100202.70
2023-06-15T00:41:44.151Z,100204.52
2023-06-15T00:44:11.550Z,100204.98
2023-06-15T00:46:39.240Z,100203.44
2023-06-15T00:49:06.533Z,100204.08
2023-06-15T00:51:35.686Z,100201.25
2023-06-15T00:54:03.755Z,100201.82
2023-06-15T00:56:31.132Z,100203.86
2023-06-15T00:58:58.398Z,100202.43
2023-06-15T01:01:27.512Z,100202.09
2023-06-15T01:03:55.803Z,100200.48
2023-06-15T01:06:26.038Z,100195.94
2023-06-15T01:08:58.359Z,100200.35
2023-06-15T01:11:25.558Z,100199.01
2023-06-15T01:13:52.783Z,100197.84
2023-06-15T01:16:31.863Z,100193.54
2023-06-15T01:19:00.174Z,100189.48
2023-06-15T01:21:28.233Z,100190.41
2023-06-15T01:24:06.754Z,100189.45
2023-06-15T01:26:35.520Z,100191.89
2023-06-15T01:29:02.769Z,100189.73
2023-06-15T01:31:30.073Z,100190.38
2023-06-15T01:33:58.860Z,100189.30
2023-06-15T01:36:26.008Z,100184.30
2023-06-15T01:38:55.853Z,100187.65
2023-06-15T01:41:24.426Z,100188.74
2023-06-15T01:43:51.572Z,100188.00
2023-06-15T01:46:18.799Z,100188.13
2023-06-15T01:48:46.150Z,100190.19
2023-06-15T01:51:13.550Z,100189.37
2023-06-15T01:53:43.819Z,100190.55
2023-06-15T01:56:11.233Z,100188.40
2023-06-15T01:58:39.215Z,100186.15
2023-06-15T02:01:06.462Z,100185.51
2023-06-15T02:03:33.821Z,100186.65
2023-06-15T02:06:01.138Z,100187.13
2023-06-15T02:08:28.720Z,100182.19
2023-06-15T02:10:56.062Z,100181.05
2023-06-15T02:13:23.256Z,100182.87
2023-06-15T02:15:50.920Z,100180.48
2023-06-15T02:18:18.260Z,100181.09
2023-06-15T02:22:53.964Z,100185.31
2023-06-15T02:25:21.160Z,100185.45
2023-06-15T02:27:48.331Z,100183.16
2023-06-15T02:30:15.672Z,100184.63
2023-06-15T02:32:43.421Z,100182.75
2023-06-15T02:35:11.764Z,100182.55
2023-06-15T02:37:39.617Z,100181.19
2023-06-15T02:40:08.117Z,100178.95
2023-06-15T02:42:36.238Z,100177.30
2023-06-15T02:45:04.317Z,100180.30
2023-06-15T02:47:31.980Z,100175.27
2023-06-15T02:50:00.531Z,100177.65
2023-06-15T02:52:27.928Z,100180.10
2023-06-15T02:54:55.189Z,100183.34
2023-06-15T02:57:22.959Z,100181.44
2023-06-15T03:00:09.724Z,100182.30
2023-06-15T03:02:38.687Z,100181.48
2023-06-15T03:05:06.124Z,100177.73
2023-06-15T03:07:42.725Z,100174.33
2023-06-15T03:10:19.836Z,100172.02
2023-06-15T03:12:47.222Z,100174.92
2023-06-15T03:15:14.727Z,100173.14
2023-06-15T03:17:42.767Z,100178.00
2023-06-15T03:20:12.171Z,100178.32
2023-06-15T03:22:41.037Z,100176.55
2023-06-15T03:25:13.858Z,100174.80
2023-06-15T03:27:44.159Z,100178.61
2023-06-15T03:30:15.102Z,100177.16
2023-06-15T03:32:42.980Z,100176.05
2023-06-15T03:35:11.348Z,100175.34
2023-06-15T03:37:39.009Z,100171.05
2023-06-15T03:40:06.952Z,100176.72
2023-06-15T03:42:34.197Z,100174.04
2023-06-15T03:45:02.182Z,100177.29
2023-06-15T03:47:29.926Z,100174.74
2023-06-15T03:49:57.332Z,100178.04
2023-06-15T03:52:26.557Z,100181.79
2023-06-15T03:54:54.603Z,100178.55
2023-06-15T03:57:22.058Z,100178.64
2023-06-15T03:59:49.310Z,100180.12
2023-06-15T04:02:16.651Z,100182.02
2023-06-15T04:04:43.909Z,100176.44
2023-06-15T04:07:11.133Z,100176.68
2023-06-15T04:09:40.050Z,100184.89
2023-06-15T04:12:07.709Z,100184.30
2023-06-15T04:14:35.663Z,100181.70
2023-06-15T04:17:03.916Z,100179.73
2023-06-15T04:19:31.254Z,100186.48
2023-06-15T04:21:58.503Z,100181.36
2023-06-15T04:24:25.751Z,100178.04
2023-06-15T04:26:53.029Z,100178.85
2023-06-15T04:29:20.202Z,100170.57
2023-06-15T04:31:53.389Z,100165.77
2023-06-15T04:34:21.062Z,100167.49
2023-06-15T04:36:49.947Z,100166.69
2023-06-15T04:39:17.978Z,100171.58
2023-06-15T04:41:46.017Z,100170.31
2023-06-15T04:44:14.340Z,100167.13
2023-06-15T04:46:43.019Z,100170.08
2023-06-15T04:49:10.820Z,100170.70
2023-06-15T04:51:39.756Z,100168.67
2023-06-15T04:54:07.806Z,100167.70
2023-06-15T04:56:35.310Z,100167.06
2023-06-15T04:59:02.558Z,100172.33
2023-06-15T05:01:29.855Z,100173.14
2023-06-15T05:03:59.544Z,100174.64
2023-06-15T05:06:27.347Z,100175.55
2023-06-15T05:08:56.070Z,100174.19
2023-06-15T05:11:23.867Z,100168.69
2023-06-15T05:13:51.127Z,100170.63
2023-06-15T05:16:20.876Z,100168.90
2023-06-15T05:18:48.280Z,100172.12
2023-06-15T05:21:15.975Z,100176.74
2023-06-15T05:23:43.514Z,100175.57
2023-06-15T05:26:29.110Z,100171.67
2023-06-15T05:28:57.497Z,100167.77
2023-06-15T05:31:25.402Z,100168.63
2023-06-15T05:33:53.186Z,100173.35
2023-06-15T05:36:34.053Z,100169.86
2023-06-15T05:39:07.453Z,100170.44
2023-06-15T05:41:35.190Z,100172.02
2023-06-15T05:44:03.090Z,100172.70
2023-06-15T05:46:30.443Z,100171.67
2023-06-15T05:48:58.007Z,100174.25
2023-06-15T05:51:25.296Z,100171.63
2023-06-15T05:53:52.805Z,100176.95
2023-06-15T05:56:19.955Z,100175.33
2023-06-15T05:58:47.098Z,100174.28
2023-06-15T06:01:14.368Z,100174.85
2023-06-15T06:03:41.546Z,100176.33
2023-06-15T06:06:08.765Z,100173.86
2023-06-15T06:08:36.348Z,100175.83
2023-06-15T06:11:08.824Z,100174.67
2023-06-15T06:13:41.422Z,100176.73
2023-06-15T06:16:08.758Z,100180.27
2023-06-15T06:18:36.445Z,100178.38
2023-06-15T06:21:03.707Z,100186.65
2023-06-15T06:23:33.191Z,100180.38
2023-06-15T06:26:00.738Z,100179.69
2023-06-15T06:28:27.968Z,100183.09
2023-06-15T06:30:55.080Z,100185.39
2023-06-15T06:33:22.240Z,100184.07
2023-06-15T06:35:49.411Z,100186.56
2023-06-15T06:38:17.503Z,100185.56
2023-06-15T06:40:44.642Z,100186.55
2023-06-15T06:43:11.970Z,100184.30
2023-06-15T06:45:39.138Z,100184.39
2023-06-15T06:48:06.720Z,100179.08
2023-06-15T06:50:34.028Z,100178.09
2023-06-15T06:53:01.184Z,100173.91
2023-06-15T06:55:28.368Z,100168.11
2023-06-15T06:57:55.728Z,100170.27
2023-06-15T07:00:22.959Z,100168.27
2023-06-15T07:02:50.494Z,100162.95
2023-06-15T07:05:17.976Z,100164.92
2023-06-15T07:07:45.466Z,100164.78
2023-06-15T07:10:12.759Z,100166.22
2023-06-15T07:12:40.435Z,100166.77
2023-06-15T07:15:08.085Z,100168.46
2023-06-15T07:17:35.526Z,100163.16
2023-06-15T07:20:03.547Z,100158.31
2023-06-15T07:22:30.801Z,100167.54
2023-06-15T07:24:58.179Z,100167.91
2023-06-15T07:27:25.382Z,100164.57
2023-06-15T07:29:52.528Z,100167.52
2023-06-15T07:32:19.818Z,100163.25
2023-06-15T07:34:47.071Z,100157.06
2023-06-15T07:37:14.800Z,100162.63
2023-06-15T07:39:42.093Z,100163.11
2023-06-15T07:42:09.656Z,100160.38
2023-06-15T07:44:36.945Z,100159.40
2023-06-15T07:47:04.418Z,100160.83
2023-06-15T07:49:44.785Z,100158.09
2023-06-15T07:52:13.960Z,100155.23
2023-06-15T07:54:42.756Z,100162.75
2023-06-15T07:57:10.098Z,100166.70
2023-06-15T07:59:37.221Z,100168.85
2023-06-15T08:02:04.667Z,100163.83
2023-06-15T08:04:31.841Z,100167.67
2023-06-15T08:06:58.949Z,100166.65
2023-06-15T08:09:26.308Z,100169.77
2023-06-15T08:11:53.457Z,100162.02
2023-06-15T08:14:20.612Z,100161.23
2023-06-15T08:16:48.640Z,100158.27
2023-06-15T08:19:16.185Z,100156.59
2023-06-15T08:21:43.374Z,100157.80
2023-06-15T08:24:10.772Z,100156.09
2023-06-15T08:26:38.058Z,100155.40
2023-06-15T08:29:18.627Z,100155.05
2023-06-15T08:31:50.414Z,100152.44
2023-06-15T08:34:17.551Z,100155.70
2023-06-15T08:36:44.693Z,100150.22
2023-06-15T08:39:11.958Z,100148.60
2023-06-15T08:41:39.168Z,100153.21
2023-06-15T08:44:06.738Z,100150.34
2023-06-15T08:46:34.135Z,100151.54
2023-06-15T08:49:01.521Z,100153.85
2023-06-15T08:51:28.814Z,100153.17
2023-06-15T08:53:56.232Z,100153.95
2023-06-15T08:56:23.553Z,100156.60
2023-06-15T08:58:51.219Z,100157.52
2023-06-15T09:01:23.739Z,100156.89
2023-06-15T09:03:52.074Z,100156.24
2023-06-15T09:06:22.749Z,100163.13
2023-06-15T09:08:50.279Z,100159.90
2023-06-15T09:11:17.921Z,100159.42
2023-06-15T09:13:46.254Z,100163.33
2023-06-15T09:16:13.967Z,100160.16
2023-06-15T09:18:46.154Z,100162.91
2023-06-15T09:21:17.783Z,100160.47
2023-06-15T09:23:46.984Z,100160.61
2023-06-15T09:26:24.430Z,100162.76
2023-06-15T09:28:55.994Z,100158.23
2023-06-15T09:31:33.590Z,100159.69
2023-06-15T09:34:14.138Z,100159.46
2023-06-15T09:36:46.343Z,100159.70
2023-06-15T09:39:14.862Z,100158.88
2023-06-15T09:41:55.144Z,100158.89
2023-06-15T09:44:22.857Z,100160.50
2023-06-15T09:46:54.248Z,100161.94
2023-06-15T09:49:23.826Z,100162.85
2023-06-15T09:51:54.048Z,100161.59
2023-06-15T09:54:23.016Z,100162.29
2023-06-15T09:56:51.826Z,100160.02
2023-06-15T09:59:19.727Z,100166.67
2023-06-15T10:01:51.288Z,100164.98
2023-06-15T10:04:21.964Z,100160.73
2023-06-15T10:06:51.734Z,100165.38
2023-06-15T10:09:26.180Z,100166.13
2023-06-15T10:11:53.864Z,100167.58
2023-06-15T10:14:24.694Z,100162.89
2023-06-15T10:16:54.828Z,100170.15
2023-06-15T10:19:22.757Z,100170.35
2023-06-15T10:21:49.898Z,100169.35
2023-06-15T10:24:17.621Z,100165.84
2023-06-15T10:26:45.277Z,100164.95
2023-06-15T10:29:44.945Z,100164.14
2023-06-15T10:32:14.565Z,100162.94
2023-06-15T10:34:46.424Z,100160.84
2023-06-15T10:37:26.939Z,100162.70
2023-06-15T10:39:54.098Z,100156.02
2023-06-15T10:42:21.316Z,100153.02
2023-06-15T10:44:48.465Z,100154.35
2023-06-15T10:47:15.773Z,100152.23
2023-06-15T10:49:51.451Z,100148.92
2023-06-15T10:52:18.763Z,100152.27
2023-06-15T10:54:46.554Z,100149.45
2023-06-15T10:57:20.122Z,100146.91
2023-06-15T10:59:54.454Z,100146.77
2023-06-15T11:02:27.976Z,100153.67
2023-06-15T11:05:09.823Z,100155.41
2023-06-15T11:07:38.185Z,100158.33
2023-06-15T11:10:27.731Z,100155.67
2023-06-15T11:13:02.487Z,100162.65
2023-06-15T11:15:34.583Z,100160.17
2023-06-15T11:18:19.734Z,100156.05
2023-06-15T11:20:53.531Z,100156.98
2023-06-15T11:23:24.725Z,100153.83
2023-06-15T11:25:55.308Z,100155.04
2023-06-15T11:28:35.886Z,100154.71
2023-06-15T11:31:06.450Z,100151.20
2023-06-15T11:33:37.650Z,100155.77
2023-06-15T11:36:06.362Z,100151.05
2023-06-15T11:38:33.684Z,100147.25
2023-06-15T11:41:00.932Z,100147.20
2023-06-15T11:43:35.659Z,100142.06
2023-06-15T11:46:02.812Z,100137.37
2023-06-15T11:48:30.568Z,100139.13
2023-06-15T11:50:58.178Z,100140.14
2023-06-15T11:53:25.599Z,100141.44
2023-06-15T11:55:52.861Z,100141.39
2023-06-15T11:58:20.161Z,100141.70
2023-06-15T12:00:47.299Z,100139.59
2023-06-15T12:03:14.603Z,100139.08
2023-06-15T12:05:44.366Z,100142.20
2023-06-15T12:08:13.100Z,100140.63
2023-06-15T12:10:40.414Z,100133.05
2023-06-15T12:13:14.274Z,100133.15
2023-06-15T12:15:46.765Z,100128.98
2023-06-15T12:18:13.942Z,100127.21
2023-06-15T12:20:41.164Z,100124.27
2023-06-15T12:23:08.411Z,100123.37
2023-06-15T12:25:48.305Z,100125.37
2023-06-15T12:28:19.451Z,100120.40
2023-06-15T12:30:48.348Z,100117.58
2023-06-15T12:33:30.400Z,100119.42
2023-06-15T12:35:59.072Z,100119.02
2023-06-15T12:38:27.476Z,100116.55
2023-06-15T12:40:55.278Z,100117.63
2023-06-15T12:43:22.975Z,100114.04
2023-06-15T12:45:51.618Z,100115.88
2023-06-15T12:48:20.008Z,100114.14
2023-06-15T12:50:47.208Z,100115.28
2023-06-15T12:53:14.697Z,100114.33
2023-06-15T12:55:42.854Z,100110.49
2023-06-15T12:58:10.155Z,100105.70
2023-06-15T13:00:37.432Z,100109.29
2023-06-15T13:03:07.285Z,100107.71
2023-06-15T13:05:35.599Z,100105.48
2023-06-15T13:08:03.804Z,100099.54
2023-06-15T13:10:31.775Z,100100.32
2023-06-15T13:12:59.171Z,100097.14
2023-06-15T13:15:27.254Z,100090.80
2023-06-15T13:17:55.589Z,100091.55
2023-06-15T13:20:23.277Z,100093.62
2023-06-15T13:22:51.143Z,100088.15
2023-06-15T13:25:19.695Z,100083.06
2023-06-15T13:27:47.177Z,100080.91
2023-06-15T13:30:15.084Z,100078.96
2023-06-15T13:32:44.573Z,100073.67
2023-06-15T13:35:11.970Z,100073.36
2023-06-15T13:37:39.232Z,100072.48
2023-06-15T13:40:14.682Z,100070.92
2023-06-15T13:42:42.045Z,100068.73
2023-06-15T13:45:10.648Z,100072.08
2023-06-15T13:47:42.431Z,100068.39
2023-06-15T13:50:12.578Z,100068.42
2023-06-15T13:52:41.119Z,100072.77
2023-06-15T13:55:09.080Z,100065.30
2023-06-15T13:57:36.856Z,100066.95
2023-06-15T14:00:04.568Z,100071.69
2023-06-15T14:02:42.040Z,100065.48
2023-06-15T14:05:10.552Z,100061.70
2023-06-15T14:07:40.015Z,100065.11
2023-06-15T14:10:08.071Z,100063.06
2023-06-15T14:12:35.686Z,100062.48
2023-06-15T14:15:03.711Z,100060.20
2023-06-15T14:17:31.705Z,100057.75
2023-06-15T14:19:58.992Z,100056.45
2023-06-15T14:22:27.399Z,100059.34
2023-06-15T14:24:54.581Z,100057.98
2023-06-15T14:27:21.943Z,100059.64
2023-06-15T14:29:49.096Z,100060.30
2023-06-15T14:32:16.752Z,100061.39
2023-06-15T14:34:45.135Z,100053.42
2023-06-15T14:37:12.796Z,100053.02
2023-06-15T14:40:46.621Z,100050.00
2023-06-15T14:43:13.813Z,100049.67
2023-06-15T14:45:41.487Z,100056.52
2023-06-15T14:48:08.707Z,100054.54
2023-06-15T14:50:35.982Z,100051.66
2023-06-15T14:53:03.349Z,100049.15
2023-06-15T14:55:30.674Z,100050.27
2023-06-15T14:57:57.925Z,100047.17
2023-06-15T15:00:25.054Z,100050.05
2023-06-15T15:02:53.068Z,100048.11
2023-06-15T15:05:20.371Z,100046.16
2023-06-15T15:07:47.612Z,100044.70
2023-06-15T15:10:15.042Z,100042.58
2023-06-15T15:12:42.331Z,100041.46
2023-06-15T15:15:10.118Z,100037.75
2023-06-15T15:17:38.527Z,100030.07
2023-06-15T15:20:07.946Z,100028.92
2023-06-15T15:22:35.213Z,100029.48
2023-06-15T15:25:02.565Z,100031.79
2023-06-15T15:27:29.795Z,100038.56
2023-06-15T15:29:57.018Z,100039.24
2023-06-15T15:32:24.183Z,100041.19
2023-06-15T15:34:51.737Z,100038.44
2023-06-15T15:37:18.960Z,100036.37
2023-06-15T15:39:47.352Z,100037.15
2023-06-15T15:42:17.623Z,100034.41
2023-06-15T15:44:45.139Z,100033.20
2023-06-15T15:47:13.880Z,100032.89
2023-06-15T15:49:41.119Z,100036.41
2023-06-15T15:52:08.534Z,100037.91
2023-06-15T15:54:35.938Z,100038.51
2023-06-15T15:57:04.018Z,100038.95
2023-06-15T15:59:31.450Z,100033.20
2023-06-15T16:01:58.921Z,100032.92
2023-06-15T16:04:26.324Z,100031.90
2023-06-15T16:06:54.101Z,100032.95
2023-06-15T16:09:21.319Z,100034.03
2023-06-15T16:11:48.467Z,100033.83
2023-06-15T16:14:15.792Z,100035.48
2023-06-15T16:16:42.955Z,100034.70
2023-06-15T16:19:10.196Z,100032.82
2023-06-15T16:21:37.367Z,100031.85
2023-06-15T16:24:05.017Z,100034.41
2023-06-15T16:26:32.253Z,100031.37
2023-06-15T16:29:00.339Z,100030.91
2023-06-15T16:31:27.568Z,100033.76
2023-06-15T16:33:54.801Z,100035.59
2023-06-15T16:36:22.275Z,100037.21
2023-06-15T16:38:49.442Z,100036.20
2023-06-15T16:41:16.855Z,100036.58
2023-06-15T16:43:44.090Z,100044.97
2023-06-15T16:46:11.600Z,100044.09
2023-06-15T16:48:38.856Z,100042.92
2023-06-15T16:51:06.039Z,100045.51
2023-06-15T16:53:33.161Z,100047.14
2023-06-15T16:56:00.353Z,100043.24
2023-06-15T16:58:27.577Z,100044.79
2023-06-15T17:00:54.772Z,100041.52
2023-06-15T17:03:22.347Z,100044.61
2023-06-15T17:05:49.817Z,100044.56
2023-06-15T17:08:18.471Z,100043.33
2023-06-15T17:10:45.785Z,100047.53
2023-06-15T17:13:12.998Z,100049.97
2023-06-15T17:15:42.119Z,100049.23
2023-06-15T17:18:09.671Z,100046.76
2023-06-15T17:20:36.872Z,100046.12
2023-06-15T17:23:04.027Z,100043.89
2023-06-15T17:25:31.526Z,100043.77
2023-06-15T17:27:58.667Z,100044.98
2023-06-15T17:30:26.950Z,100046.52
2023-06-15T17:32:54.122Z,100042.51
2023-06-15T17:35:21.318Z,100042.84
2023-06-15T17:37:48.427Z,100046.58
2023-06-15T17:40:15.861Z,100047.23
2023-06-15T17:42:43.324Z,100049.75
2023-06-15T17:45:10.807Z,100048.16
2023-06-15T17:47:38.045Z,100051.34
2023-06-15T17:50:06.342Z,100054.04
2023-06-15T17:52:35.657Z,100055.53
2023-06-15T17:55:04.963Z,100056.28
2023-06-15T17:57:32.162Z,100056.33
2023-06-15T18:00:00.435Z,100056.49
2023-06-15T18:02:27.640Z,100058.16
2023-06-15T18:04:54.848Z,100063.20
2023-06-15T18:07:21.986Z,100063.02
2023-06-15T18:09:49.230Z,100056.43
2023-06-15T18:12:16.465Z,100054.55
2023-06-15T18:14:43.958Z,100056.20
2023-06-15T18:17:11.151Z,100060.30
2023-06-15T18:19:38.283Z,100066.67
2023-06-15T18:22:05.431Z,100064.64
2023-06-15T18:24:32.709Z,100072.64
2023-06-15T18:27:00.077Z,100071.36
2023-06-15T18:29:27.412Z,100073.34
2023-06-15T18:31:54.589Z,100076.16
2023-06-15T18:34:21.780Z,100073.70
2023-06-15T18:36:48.913Z,100073.88
2023-06-15T18:39:18.951Z,100080.45
2023-06-15T18:41:46.393Z,100080.80
2023-06-15T18:44:13.604Z,100079.20
2023-06-15T18:46:40.824Z,100080.02
2023-06-15T18:49:08.255Z,100081.80
2023-06-15T18:51:35.460Z,100079.41
2023-06-15T18:54:03.074Z,100080.30
2023-06-15T18:56:30.308Z,100081.37
2023-06-15T18:58:57.649Z,100084.58
2023-06-15T19:01:24.889Z,100085.45
2023-06-15T19:03:52.180Z,100088.17
2023-06-15T19:06:19.358Z,100085.53
2023-06-15T19:08:46.800Z,100082.81
2023-06-15T19:11:14.006Z,100086.21
2023-06-15T19:13:41.303Z,100084.93
2023-06-15T19:16:08.644Z,100085.52
2023-06-15T19:18:35.862Z,100085.83
2023-06-15T19:21:05.665Z,100087.65
2023-06-15T19:23:32.881Z,100087.34
2023-06-15T19:26:00.972Z,100083.10
2023-06-15T19:28:28.213Z,100086.38
2023-06-15T19:30:55.455Z,100088.17
2023-06-15T19:33:22.684Z,100087.69
2023-06-15T19:35:51.788Z,100094.64
2023-06-15T19:38:18.933Z,100096.98
2023-06-15T19:40:46.251Z,100095.17
2023-06-15T19:43:13.453Z,100097.88
2023-06-15T19:45:40.710Z,100093.42
2023-06-15T19:48:07.985Z,100090.31
2023-06-15T19:50:35.308Z,100088.63
2023-06-15T19:53:02.440Z,100087.45
2023-06-15T19:55:29.861Z,100086.36
2023-06-15T19:57:57.009Z,100084.23
2023-06-15T20:00:24.142Z,100083.88
2023-06-15T20:02:51.602Z,100085.90
2023-06-15T20:05:18.993Z,100088.21
2023-06-15T20:07:46.168Z,100087.60
2023-06-15T20:10:13.325Z,100087.45
2023-06-15T20:12:40.503Z,100091.77
2023-06-15T20:15:08.004Z,100094.45
2023-06-15T20:17:35.387Z,100095.59
2023-06-15T20:20:02.866Z,100099.61
2023-06-15T20:22:30.131Z,100101.14
2023-06-15T20:24:57.695Z,100098.55
2023-06-15T20:27:24.910Z,100098.81
2023-06-15T20:29:52.040Z,100101.66
2023-06-15T20:32:25.319Z,100099.11
2023-06-15T20:34:52.576Z,100097.82
2023-06-15T20:37:19.803Z,100096.62
2023-06-15T20:39:47.011Z,100098.73
2023-06-15T20:42:15.400Z,100095.92
2023-06-15T20:44:42.738Z,100095.67
2023-06-15T20:47:09.977Z,100095.39
2023-06-15T20:49:37.263Z,100099.40
2023-06-15T20:52:04.816Z,100101.33
2023-06-15T20:54:31.924Z,100102.98
2023-06-15T20:56:59.075Z,100102.78
2023-06-15T20:59:26.233Z,100101.81
2023-06-15T21:01:53.401Z,100101.20
2023-06-15T21:04:20.590Z,100102.20
2023-06-15T21:06:47.772Z,100104.20
2023-06-15T21:09:14.969Z,100105.04
2023-06-15T21:11:42.108Z,100104.63
2023-06-15T21:14:09.326Z,100098.59
2023-06-15T21:16:36.627Z,100097.20
2023-06-15T21:19:03.771Z,100094.71
2023-06-15T21:21:30.993Z,100093.25
2023-06-15T21:23:58.140Z,100095.02
2023-06-15T21:26:26.049Z,100090.92
2023-06-15T21:28:53.257Z,100091.94
2023-06-15T21:31:20.999Z,100089.09
2023-06-15T21:33:48.304Z,100086.62
2023-06-15T21:36:16.070Z,100087.77
2023-06-15T21:38:43.175Z,100087.88
2023-06-15T21:41:10.324Z,100087.52
2023-06-15T21:43:39.225Z,100089.09
2023-06-15T21:46:07.897Z,100088.23
2023-06-15T21:48:35.153Z,100087.20
2023-06-15T21:51:03.284Z,100086.19
2023-06-15T21:53:30.598Z,100085.63
2023-06-15T21:55:57.803Z,100081.37
2023-06-15T21:58:25.004Z,100081.95
2023-06-15T22:00:52.135Z,100080.85
2023-06-15T22:03:19.412Z,100078.84
2023-06-15T22:05:48.944Z,100077.10
2023-06-15T22:08:16.805Z,100079.69
2023-06-15T22:10:43.992Z,100079.33
2023-06-15T22:13:15.550Z,100080.58
2023-06-15T22:15:42.740Z,100082.50
2023-06-15T22:18:10.588Z,100075.17
2023-06-15T22:20:37.820Z,100076.24
2023-06-15T22:23:05.268Z,100076.00
2023-06-15T22:25:37.382Z,100075.84
2023-06-15T22:28:07.448Z,100073.88
2023-06-15T22:30:34.613Z,100073.45
2023-06-15T22:33:01.852Z,100076.19
2023-06-15T22:35:29.002Z,100079.84
2023-06-15T22:37:56.502Z,100078.14
2023-06-15T22:40:23.638Z,100074.17
2023-06-15T22:42:51.016Z,100075.53
2023-06-15T22:45:18.224Z,100075.70
2023-06-15T22:47:45.872Z,100075.52
2023-06-15T22:50:14.207Z,100070.10
2023-06-15T22:52:42.547Z,100075.63
2023-06-15T22:55:10.047Z,100074.16
2023-06-15T22:57:37.204Z,100072.27
2023-06-15T23:00:07.184Z,100068.70
2023-06-15T23:02:34.393Z,100069.20
2023-06-15T23:05:01.701Z,100069.99
2023-06-15T23:07:30.308Z,100065.88
2023-06-15T23:09:57.909Z,100067.22
2023-06-15T23:12:25.962Z,100063.96
2023-06-15T23:14:53.912Z,100059.68
2023-06-15T23:17:22.043Z,100060.77
2023-06-15T23:19:50.420Z,100060.30
2023-06-15T23:22:23.782Z,100062.43
2023-06-15T23:24:51.631Z,100063.95
2023-06-15T23:27:20.173Z,100063.45
2023-06-15T23:29:49.602Z,100061.30
2023-06-15T23:32:17.306Z,100053.41
2023-06-15T23:34:44.697Z,100056.92
2023-06-15T23:37:11.805Z,100053.83
2023-06-15T23:39:38.979Z,100051.71
2023-06-15T23:42:06.481Z,100049.50
2023-06-15T23:44:33.665Z,100048.73
2023-06-15T23:47:00.954Z,100047.18
2023-06-15T23:49:28.119Z,100044.88
2023-06-15T23:51:55.412Z,100047.80
2023-06-15T23:54:22.553Z,100051.07
2023-06-15T23:56:49.734Z,100049.51
2023-06-15T23:59:16.851Z,100046.58
